sensor_id;sensor_type;location;lat;lon;timestamp;temperature;humidity
41928;DHT22;27616;51.420;6.788;2023-07-09T00:00:16;23.30;94.00
41928;DHT22;27616;51.420;6.788;2023-07-09T00:02:43;23.30;94.00
41928;DHT22;27616;51.420;6.788;2023-07-09T00:05:14;23.30;94.20
41928;DHT22;27616;51.420;6.788;2023-07-09T00:07:40;23.30;94.30
41928;DHT22;27616;51.420;6.788;2023-07-09T00:10:12;23.30;94.20
41928;DHT22;27616;51.420;6.788;2023-07-09T00:12:38;23.30;94.30
41928;DHT22;27616;51.420;6.788;2023-07-09T00:15:04;23.30;94.20
41928;DHT22;27616;51.420;6.788;2023-07-09T00:17:30;23.30;94.30
41928;DHT22;27616;51.420;6.788;2023-07-09T00:19:57;23.30;94.40
41928;DHT22;27616;51.420;6.788;2023-07-09T00:22:22;23.20;94.60
41928;DHT22;27616;51.420;6.788;2023-07-09T00:24:49;23.10;94.80
41928;DHT22;27616;51.420;6.788;2023-07-09T00:27:17;23.10;94.90
41928;DHT22;27616;51.420;6.788;2023-07-09T00:29:43;23.10;95.00
41928;DHT22;27616;51.420;6.788;2023-07-09T00:32:13;23.10;95.00
41928;DHT22;27616;51.420;6.788;2023-07-09T00:34:44;23.00;95.20
41928;DHT22;27616;51.420;6.788;2023-07-09T00:37:17;23.00;95.10
41928;DHT22;27616;51.420;6.788;2023-07-09T00:39:43;23.00;95.20
41928;DHT22;27616;51.420;6.788;2023-07-09T00:42:17;22.90;95.30
41928;DHT22;27616;51.420;6.788;2023-07-09T00:44:43;22.80;95.50
41928;DHT22;27616;51.420;6.788;2023-07-09T00:50:26;22.70;95.90
41928;DHT22;27616;51.420;6.788;2023-07-09T00:52:46;22.70;96.10
41928;DHT22;27616;51.420;6.788;2023-07-09T00:55:15;22.60;96.20
41928;DHT22;27616;51.420;6.788;2023-07-09T00:57:42;22.60;96.00
41928;DHT22;27616;51.420;6.788;2023-07-09T01:00:10;22.70;96.00
41928;DHT22;27616;51.420;6.788;2023-07-09T01:02:38;22.70;95.80
41928;DHT22;27616;51.420;6.788;2023-07-09T01:05:09;22.60;95.80
41928;DHT22;27616;51.420;6.788;2023-07-09T01:07:36;22.60;95.90
41928;DHT22;27616;51.420;6.788;2023-07-09T01:10:02;22.60;96.20
41928;DHT22;27616;51.420;6.788;2023-07-09T01:12:28;22.50;96.30
41928;DHT22;27616;51.420;6.788;2023-07-09T01:14:56;22.50;96.50
41928;DHT22;27616;51.420;6.788;2023-07-09T01:17:28;22.50;96.40
41928;DHT22;27616;51.420;6.788;2023-07-09T01:19:55;22.60;96.30
41928;DHT22;27616;51.420;6.788;2023-07-09T01:22:21;22.60;96.40
41928;DHT22;27616;51.420;6.788;2023-07-09T01:24:55;22.60;96.60
41928;DHT22;27616;51.420;6.788;2023-07-09T01:27:22;22.60;96.70
41928;DHT22;27616;51.420;6.788;2023-07-09T01:29:49;22.50;96.80
41928;DHT22;27616;51.420;6.788;2023-07-09T01:32:16;22.50;97.30
41928;DHT22;27616;51.420;6.788;2023-07-09T01:34:44;22.40;97.50
41928;DHT22;27616;51.420;6.788;2023-07-09T01:37:10;22.40;97.80
41928;DHT22;27616;51.420;6.788;2023-07-09T01:39:35;22.30;97.90
41928;DHT22;27616;51.420;6.788;2023-07-09T01:42:01;22.40;98.40
41928;DHT22;27616;51.420;6.788;2023-07-09T01:44:27;22.30;98.30
41928;DHT22;27616;51.420;6.788;2023-07-09T01:46:54;22.30;98.20
41928;DHT22;27616;51.420;6.788;2023-07-09T01:49:20;22.30;98.50
41928;DHT22;27616;51.420;6.788;2023-07-09T01:51:46;22.30;98.80
41928;DHT22;27616;51.420;6.788;2023-07-09T01:54:14;22.10;99.20
41928;DHT22;27616;51.420;6.788;2023-07-09T01:56:41;22.00;99.60
41928;DHT22;27616;51.420;6.788;2023-07-09T01:59:07;22.00;99.60
41928;DHT22;27616;51.420;6.788;2023-07-09T02:01:36;22.00;99.40
41928;DHT22;27616;51.420;6.788;2023-07-09T02:04:03;21.90;99.70
41928;DHT22;27616;51.420;6.788;2023-07-09T02:06:30;21.90;99.90
41928;DHT22;27616;51.420;6.788;2023-07-09T02:08:57;21.90;99.90
41928;DHT22;27616;51.420;6.788;2023-07-09T02:11:23;21.80;99.90
41928;DHT22;27616;51.420;6.788;2023-07-09T02:13:50;21.70;99.90
41928;DHT22;27616;51.420;6.788;2023-07-09T02:16:16;21.70;99.90
41928;DHT22;27616;51.420;6.788;2023-07-09T02:18:41;21.60;99.90
41928;DHT22;27616;51.420;6.788;2023-07-09T02:21:07;21.60;99.90
41928;DHT22;27616;51.420;6.788;2023-07-09T02:23:32;21.50;99.90
41928;DHT22;27616;51.420;6.788;2023-07-09T02:25:58;21.40;99.90
41928;DHT22;27616;51.420;6.788;2023-07-09T02:28:23;21.30;99.90
41928;DHT22;27616;51.420;6.788;2023-07-09T02:30:49;21.30;99.90
41928;DHT22;27616;51.420;6.788;2023-07-09T02:33:14;21.20;99.90
41928;DHT22;27616;51.420;6.788;2023-07-09T02:35:40;21.10;99.90
41928;DHT22;27616;51.420;6.788;2023-07-09T02:38:05;21.00;99.90
41928;DHT22;27616;51.420;6.788;2023-07-09T02:40:31;20.90;99.90
41928;DHT22;27616;51.420;6.788;2023-07-09T02:42:56;20.90;99.90
41928;DHT22;27616;51.420;6.788;2023-07-09T02:45:22;20.90;99.90
41928;DHT22;27616;51.420;6.788;2023-07-09T02:47:48;20.90;99.90
41928;DHT22;27616;51.420;6.788;2023-07-09T02:50:14;21.00;99.90
41928;DHT22;27616;51.420;6.788;2023-07-09T02:52:40;21.10;99.90
41928;DHT22;27616;51.420;6.788;2023-07-09T02:55:07;21.30;99.90
41928;DHT22;27616;51.420;6.788;2023-07-09T02:57:33;21.40;99.90
41928;DHT22;27616;51.420;6.788;2023-07-09T02:59:59;21.50;99.90
41928;DHT22;27616;51.420;6.788;2023-07-09T03:02:25;21.50;99.90
41928;DHT22;27616;51.420;6.788;2023-07-09T03:04:51;21.50;99.90
41928;DHT22;27616;51.420;6.788;2023-07-09T03:07:16;21.50;99.90
41928;DHT22;27616;51.420;6.788;2023-07-09T03:09:42;21.50;99.90
41928;DHT22;27616;51.420;6.788;2023-07-09T03:12:08;21.50;99.90
41928;DHT22;27616;51.420;6.788;2023-07-09T03:14:33;21.40;99.90
41928;DHT22;27616;51.420;6.788;2023-07-09T03:16:59;21.40;99.90
41928;DHT22;27616;51.420;6.788;2023-07-09T03:19:24;21.30;99.90
41928;DHT22;27616;51.420;6.788;2023-07-09T03:21:50;21.30;99.90
41928;DHT22;27616;51.420;6.788;2023-07-09T03:24:16;21.30;99.90
41928;DHT22;27616;51.420;6.788;2023-07-09T03:26:44;21.30;99.90
41928;DHT22;27616;51.420;6.788;2023-07-09T03:29:11;21.20;99.90
41928;DHT22;27616;51.420;6.788;2023-07-09T03:31:36;21.20;99.90
41928;DHT22;27616;51.420;6.788;2023-07-09T03:34:02;21.20;99.90
41928;DHT22;27616;51.420;6.788;2023-07-09T03:36:28;21.20;99.90
41928;DHT22;27616;51.420;6.788;2023-07-09T03:38:54;21.20;99.90
41928;DHT22;27616;51.420;6.788;2023-07-09T03:41:19;21.10;99.90
41928;DHT22;27616;51.420;6.788;2023-07-09T03:43:45;21.20;99.90
41928;DHT22;27616;51.420;6.788;2023-07-09T03:46:10;21.30;99.90
41928;DHT22;27616;51.420;6.788;2023-07-09T03:48:36;21.40;99.90
41928;DHT22;27616;51.420;6.788;2023-07-09T03:51:02;21.40;99.90
41928;DHT22;27616;51.420;6.788;2023-07-09T03:53:27;21.40;99.90
41928;DHT22;27616;51.420;6.788;2023-07-09T03:55:53;21.40;99.90
41928;DHT22;27616;51.420;6.788;2023-07-09T03:58:19;21.40;99.90
41928;DHT22;27616;51.420;6.788;2023-07-09T04:00:45;21.40;99.90
41928;DHT22;27616;51.420;6.788;2023-07-09T04:03:10;21.40;99.90
41928;DHT22;27616;51.420;6.788;2023-07-09T04:05:36;21.40;99.90
41928;DHT22;27616;51.420;6.788;2023-07-09T04:08:03;21.50;99.90
41928;DHT22;27616;51.420;6.788;2023-07-09T04:10:28;21.40;99.90
41928;DHT22;27616;51.420;6.788;2023-07-09T04:12:54;21.40;99.90
41928;DHT22;27616;51.420;6.788;2023-07-09T04:15:19;21.40;99.90
41928;DHT22;27616;51.420;6.788;2023-07-09T04:17:45;21.40;99.90
41928;DHT22;27616;51.420;6.788;2023-07-09T04:20:10;21.40;99.90
41928;DHT22;27616;51.420;6.788;2023-07-09T04:22:36;21.40;99.90
41928;DHT22;27616;51.420;6.788;2023-07-09T04:25:03;21.40;99.90
41928;DHT22;27616;51.420;6.788;2023-07-09T04:27:29;21.40;99.90
41928;DHT22;27616;51.420;6.788;2023-07-09T04:29:55;21.50;99.90
41928;DHT22;27616;51.420;6.788;2023-07-09T04:32:21;21.60;99.90
41928;DHT22;27616;51.420;6.788;2023-07-09T04:34:47;21.70;99.90
41928;DHT22;27616;51.420;6.788;2023-07-09T04:37:12;21.80;99.90
41928;DHT22;27616;51.420;6.788;2023-07-09T04:39:38;21.90;99.90
41928;DHT22;27616;51.420;6.788;2023-07-09T04:42:09;22.00;99.90
41928;DHT22;27616;51.420;6.788;2023-07-09T04:44:35;22.00;99.90
41928;DHT22;27616;51.420;6.788;2023-07-09T04:47:01;22.10;99.90
41928;DHT22;27616;51.420;6.788;2023-07-09T04:49:26;22.10;99.90
41928;DHT22;27616;51.420;6.788;2023-07-09T04:51:52;22.20;99.90
41928;DHT22;27616;51.420;6.788;2023-07-09T04:54:18;22.30;99.90
41928;DHT22;27616;51.420;6.788;2023-07-09T04:56:43;22.30;99.90
41928;DHT22;27616;51.420;6.788;2023-07-09T04:59:12;22.40;99.90
41928;DHT22;27616;51.420;6.788;2023-07-09T05:01:37;22.50;99.90
41928;DHT22;27616;51.420;6.788;2023-07-09T05:04:03;22.50;99.90
41928;DHT22;27616;51.420;6.788;2023-07-09T05:06:29;22.60;99.90
41928;DHT22;27616;51.420;6.788;2023-07-09T05:08:54;22.60;99.90
41928;DHT22;27616;51.420;6.788;2023-07-09T05:11:20;22.50;99.90
41928;DHT22;27616;51.420;6.788;2023-07-09T05:13:45;22.60;99.90
41928;DHT22;27616;51.420;6.788;2023-07-09T05:16:11;22.70;99.90
41928;DHT22;27616;51.420;6.788;2023-07-09T05:18:36;22.70;99.90
41928;DHT22;27616;51.420;6.788;2023-07-09T05:21:02;22.80;99.90
41928;DHT22;27616;51.420;6.788;2023-07-09T05:23:27;22.80;99.90
41928;DHT22;27616;51.420;6.788;2023-07-09T05:25:59;22.80;99.90
41928;DHT22;27616;51.420;6.788;2023-07-09T05:28:25;22.90;99.90
41928;DHT22;27616;51.420;6.788;2023-07-09T05:30:51;23.00;99.90
41928;DHT22;27616;51.420;6.788;2023-07-09T05:33:17;23.10;99.90
41928;DHT22;27616;51.420;6.788;2023-07-09T05:35:43;23.10;99.90
41928;DHT22;27616;51.420;6.788;2023-07-09T05:38:09;23.30;99.90
41928;DHT22;27616;51.420;6.788;2023-07-09T05:40:35;23.40;99.90
41928;DHT22;27616;51.420;6.788;2023-07-09T05:43:00;23.40;99.90
41928;DHT22;27616;51.420;6.788;2023-07-09T05:45:26;23.50;99.90
41928;DHT22;27616;51.420;6.788;2023-07-09T05:47:51;23.60;99.90
41928;DHT22;27616;51.420;6.788;2023-07-09T05:50:17;23.70;99.90
41928;DHT22;27616;51.420;6.788;2023-07-09T05:52:42;23.80;99.90
41928;DHT22;27616;51.420;6.788;2023-07-09T05:55:08;23.90;99.70
41928;DHT22;27616;51.420;6.788;2023-07-09T05:57:33;24.00;99.70
41928;DHT22;27616;51.420;6.788;2023-07-09T05:59:59;24.10;99.50
41928;DHT22;27616;51.420;6.788;2023-07-09T06:02:24;24.20;99.50
41928;DHT22;27616;51.420;6.788;2023-07-09T06:04:50;24.30;99.20
41928;DHT22;27616;51.420;6.788;2023-07-09T06:07:16;24.40;99.10
41928;DHT22;27616;51.420;6.788;2023-07-09T06:09:41;24.50;98.70
41928;DHT22;27616;51.420;6.788;2023-07-09T06:12:07;24.60;98.50
41928;DHT22;27616;51.420;6.788;2023-07-09T06:14:33;24.70;98.60
41928;DHT22;27616;51.420;6.788;2023-07-09T06:16:59;24.70;98.30
41928;DHT22;27616;51.420;6.788;2023-07-09T06:19:25;24.90;98.10
41928;DHT22;27616;51.420;6.788;2023-07-09T06:21:50;25.00;98.00
41928;DHT22;27616;51.420;6.788;2023-07-09T06:24:16;25.10;97.60
41928;DHT22;27616;51.420;6.788;2023-07-09T06:26:41;25.20;97.70
41928;DHT22;27616;51.420;6.788;2023-07-09T06:29:07;25.30;97.40
41928;DHT22;27616;51.420;6.788;2023-07-09T06:31:33;25.30;97.20
41928;DHT22;27616;51.420;6.788;2023-07-09T06:33:58;25.50;97.10
41928;DHT22;27616;51.420;6.788;2023-07-09T06:36:24;25.50;97.30
41928;DHT22;27616;51.420;6.788;2023-07-09T06:38:49;25.50;97.10
41928;DHT22;27616;51.420;6.788;2023-07-09T06:41:15;25.70;97.20
41928;DHT22;27616;51.420;6.788;2023-07-09T06:43:41;25.70;96.70
41928;DHT22;27616;51.420;6.788;2023-07-09T06:46:08;25.90;96.40
41928;DHT22;27616;51.420;6.788;2023-07-09T06:48:35;25.90;96.80
41928;DHT22;27616;51.420;6.788;2023-07-09T06:51:00;26.00;96.50
41928;DHT22;27616;51.420;6.788;2023-07-09T06:53:27;26.10;96.60
41928;DHT22;27616;51.420;6.788;2023-07-09T06:55:53;26.30;96.20
41928;DHT22;27616;51.420;6.788;2023-07-09T06:58:24;26.30;96.00
41928;DHT22;27616;51.420;6.788;2023-07-09T07:00:50;26.40;96.20
41928;DHT22;27616;51.420;6.788;2023-07-09T07:03:16;26.50;95.50
41928;DHT22;27616;51.420;6.788;2023-07-09T07:05:45;26.60;95.50
41928;DHT22;27616;51.420;6.788;2023-07-09T07:08:13;26.70;95.30
41928;DHT22;27616;51.420;6.788;2023-07-09T07:10:38;26.80;95.20
41928;DHT22;27616;51.420;6.788;2023-07-09T07:13:04;26.80;95.40
41928;DHT22;27616;51.420;6.788;2023-07-09T07:15:29;27.00;95.00
41928;DHT22;27616;51.420;6.788;2023-07-09T07:17:55;27.10;94.80
41928;DHT22;27616;51.420;6.788;2023-07-09T07:20:20;27.10;95.20
41928;DHT22;27616;51.420;6.788;2023-07-09T07:22:46;27.30;94.60
41928;DHT22;27616;51.420;6.788;2023-07-09T07:25:12;27.40;94.40
41928;DHT22;27616;51.420;6.788;2023-07-09T07:27:37;27.50;94.70
41928;DHT22;27616;51.420;6.788;2023-07-09T07:30:04;27.70;94.00
41928;DHT22;27616;51.420;6.788;2023-07-09T07:32:29;27.80;93.90
41928;DHT22;27616;51.420;6.788;2023-07-09T07:34:55;27.90;93.40
41928;DHT22;27616;51.420;6.788;2023-07-09T07:37:21;27.90;93.20
41928;DHT22;27616;51.420;6.788;2023-07-09T07:39:46;27.80;93.40
41928;DHT22;27616;51.420;6.788;2023-07-09T07:42:12;27.90;94.60
41928;DHT22;27616;51.420;6.788;2023-07-09T07:44:38;27.90;94.10
41928;DHT22;27616;51.420;6.788;2023-07-09T07:47:04;28.10;93.50
41928;DHT22;27616;51.420;6.788;2023-07-09T07:49:29;28.10;93.70
41928;DHT22;27616;51.420;6.788;2023-07-09T07:51:55;28.20;94.60
41928;DHT22;27616;51.420;6.788;2023-07-09T07:54:21;28.40;93.80
41928;DHT22;27616;51.420;6.788;2023-07-09T07:56:46;28.50;93.70
41928;DHT22;27616;51.420;6.788;2023-07-09T07:59:12;28.70;93.30
41928;DHT22;27616;51.420;6.788;2023-07-09T08:01:37;28.80;93.10
41928;DHT22;27616;51.420;6.788;2023-07-09T08:04:03;28.80;93.90
41928;DHT22;27616;51.420;6.788;2023-07-09T08:06:28;29.00;92.50
41928;DHT22;27616;51.420;6.788;2023-07-09T08:08:56;29.00;92.20
41928;DHT22;27616;51.420;6.788;2023-07-09T08:11:22;29.10;92.40
41928;DHT22;27616;51.420;6.788;2023-07-09T08:13:48;29.20;92.50
41928;DHT22;27616;51.420;6.788;2023-07-09T08:16:13;29.20;92.40
41928;DHT22;27616;51.420;6.788;2023-07-09T08:18:39;29.30;92.10
41928;DHT22;27616;51.420;6.788;2023-07-09T08:21:04;29.40;91.90
41928;DHT22;27616;51.420;6.788;2023-07-09T08:23:30;29.60;91.40
41928;DHT22;27616;51.420;6.788;2023-07-09T08:25:56;29.60;91.80
41928;DHT22;27616;51.420;6.788;2023-07-09T08:28:22;29.70;91.50
41928;DHT22;27616;51.420;6.788;2023-07-09T08:30:47;29.90;91.20
41928;DHT22;27616;51.420;6.788;2023-07-09T08:33:13;29.90;91.20
41928;DHT22;27616;51.420;6.788;2023-07-09T08:35:41;30.00;91.20
41928;DHT22;27616;51.420;6.788;2023-07-09T08:38:07;30.10;91.60
41928;DHT22;27616;51.420;6.788;2023-07-09T08:40:32;30.20;91.20
41928;DHT22;27616;51.420;6.788;2023-07-09T08:43:01;30.30;91.00
41928;DHT22;27616;51.420;6.788;2023-07-09T08:45:50;30.30;90.20
41928;DHT22;27616;51.420;6.788;2023-07-09T08:48:36;30.40;90.20
41928;DHT22;27616;51.420;6.788;2023-07-09T08:51:02;30.50;89.20
41928;DHT22;27616;51.420;6.788;2023-07-09T08:53:33;30.50;90.60
41928;DHT22;27616;51.420;6.788;2023-07-09T08:56:00;30.60;90.00
41928;DHT22;27616;51.420;6.788;2023-07-09T08:58:28;30.70;89.40
41928;DHT22;27616;51.420;6.788;2023-07-09T09:00:59;30.90;89.30
41928;DHT22;27616;51.420;6.788;2023-07-09T09:03:35;31.00;87.70
41928;DHT22;27616;51.420;6.788;2023-07-09T09:06:09;31.10;86.90
41928;DHT22;27616;51.420;6.788;2023-07-09T09:11:25;31.10;89.00
41928;DHT22;27616;51.420;6.788;2023-07-09T09:13:55;31.20;87.00
41928;DHT22;27616;51.420;6.788;2023-07-09T09:16:25;31.40;85.80
41928;DHT22;27616;51.420;6.788;2023-07-09T09:18:52;31.50;83.50
41928;DHT22;27616;51.420;6.788;2023-07-09T09:21:23;31.50;83.80
41928;DHT22;27616;51.420;6.788;2023-07-09T09:23:51;31.60;84.00
41928;DHT22;27616;51.420;6.788;2023-07-09T09:26:24;31.70;81.80
41928;DHT22;27616;51.420;6.788;2023-07-09T09:28:50;31.70;83.40
41928;DHT22;27616;51.420;6.788;2023-07-09T09:31:17;31.80;81.00
41928;DHT22;27616;51.420;6.788;2023-07-09T09:33:43;32.00;78.90
41928;DHT22;27616;51.420;6.788;2023-07-09T09:36:17;32.10;76.60
41928;DHT22;27616;51.420;6.788;2023-07-09T09:38:43;32.00;79.20
41928;DHT22;27616;51.420;6.788;2023-07-09T09:41:12;32.10;78.00
41928;DHT22;27616;51.420;6.788;2023-07-09T09:43:38;32.20;76.80
41928;DHT22;27616;51.420;6.788;2023-07-09T09:46:06;32.30;77.40
41928;DHT22;27616;51.420;6.788;2023-07-09T09:48:32;32.40;78.20
41928;DHT22;27616;51.420;6.788;2023-07-09T09:50:58;32.50;76.50
41928;DHT22;27616;51.420;6.788;2023-07-09T09:53:28;32.50;75.30
41928;DHT22;27616;51.420;6.788;2023-07-09T09:55:54;32.60;75.00
41928;DHT22;27616;51.420;6.788;2023-07-09T09:58:20;32.70;75.40
41928;DHT22;27616;51.420;6.788;2023-07-09T10:00:51;32.70;75.70
41928;DHT22;27616;51.420;6.788;2023-07-09T10:03:17;32.80;74.10
41928;DHT22;27616;51.420;6.788;2023-07-09T10:05:56;32.90;74.10
41928;DHT22;27616;51.420;6.788;2023-07-09T10:10:52;33.00;73.30
41928;DHT22;27616;51.420;6.788;2023-07-09T10:13:20;33.00;73.20
41928;DHT22;27616;51.420;6.788;2023-07-09T10:15:58;33.00;73.40
41928;DHT22;27616;51.420;6.788;2023-07-09T10:23:28;33.20;73.40
41928;DHT22;27616;51.420;6.788;2023-07-09T10:33:23;33.30;74.90
41928;DHT22;27616;51.420;6.788;2023-07-09T10:36:11;33.50;72.40
41928;DHT22;27616;51.420;6.788;2023-07-09T10:41:07;33.80;69.40
41928;DHT22;27616;51.420;6.788;2023-07-09T10:43:44;33.80;70.80
41928;DHT22;27616;51.420;6.788;2023-07-09T10:46:15;33.90;68.00
41928;DHT22;27616;51.420;6.788;2023-07-09T10:48:45;33.90;67.80
41928;DHT22;27616;51.420;6.788;2023-07-09T10:51:28;33.90;67.60
41928;DHT22;27616;51.420;6.788;2023-07-09T10:56:24;33.90;67.00
41928;DHT22;27616;51.420;6.788;2023-07-09T11:01:26;34.10;67.70
41928;DHT22;27616;51.420;6.788;2023-07-09T11:03:55;34.10;67.00
41928;DHT22;27616;51.420;6.788;2023-07-09T11:06:26;34.20;68.20
41928;DHT22;27616;51.420;6.788;2023-07-09T11:08:54;34.20;67.70
41928;DHT22;27616;51.420;6.788;2023-07-09T11:11:32;34.30;66.90
41928;DHT22;27616;51.420;6.788;2023-07-09T11:14:00;34.20;67.20
41928;DHT22;27616;51.420;6.788;2023-07-09T11:16:28;34.20;67.90
41928;DHT22;27616;51.420;6.788;2023-07-09T11:18:57;34.10;68.30
41928;DHT22;27616;51.420;6.788;2023-07-09T11:21:23;34.30;68.30
41928;DHT22;27616;51.420;6.788;2023-07-09T11:23:50;34.50;67.10
41928;DHT22;27616;51.420;6.788;2023-07-09T11:28:46;34.60;67.20
41928;DHT22;27616;51.420;6.788;2023-07-09T11:31:31;34.60;68.40
41928;DHT22;27616;51.420;6.788;2023-07-09T11:34:01;34.70;65.90
41928;DHT22;27616;51.420;6.788;2023-07-09T11:36:28;34.60;66.60
41928;DHT22;27616;51.420;6.788;2023-07-09T11:38:54;34.50;67.20
41928;DHT22;27616;51.420;6.788;2023-07-09T11:41:39;34.50;67.60
41928;DHT22;27616;51.420;6.788;2023-07-09T11:46:34;34.70;68.20
41928;DHT22;27616;51.420;6.788;2023-07-09T11:49:00;34.70;66.70
41928;DHT22;27616;51.420;6.788;2023-07-09T11:51:48;34.80;66.80
41928;DHT22;27616;51.420;6.788;2023-07-09T11:54:12;34.80;66.00
41928;DHT22;27616;51.420;6.788;2023-07-09T11:56:42;34.90;67.00
41928;DHT22;27616;51.420;6.788;2023-07-09T11:59:08;35.00;66.40
41928;DHT22;27616;51.420;6.788;2023-07-09T12:01:38;35.10;65.50
41928;DHT22;27616;51.420;6.788;2023-07-09T12:04:07;35.10;64.90
41928;DHT22;27616;51.420;6.788;2023-07-09T12:06:37;35.10;64.70
41928;DHT22;27616;51.420;6.788;2023-07-09T12:09:03;35.00;63.70
41928;DHT22;27616;51.420;6.788;2023-07-09T12:11:33;35.00;63.40
41928;DHT22;27616;51.420;6.788;2023-07-09T12:14:05;35.00;63.50
41928;DHT22;27616;51.420;6.788;2023-07-09T12:16:39;35.00;63.20
41928;DHT22;27616;51.420;6.788;2023-07-09T12:19:04;35.00;62.70
41928;DHT22;27616;51.420;6.788;2023-07-09T12:21:31;35.00;62.90
41928;DHT22;27616;51.420;6.788;2023-07-09T12:23:57;34.90;63.10
41928;DHT22;27616;51.420;6.788;2023-07-09T12:26:23;35.00;63.70
41928;DHT22;27616;51.420;6.788;2023-07-09T12:28:56;35.10;63.90
41928;DHT22;27616;51.420;6.788;2023-07-09T12:31:26;35.20;63.40
41928;DHT22;27616;51.420;6.788;2023-07-09T12:33:53;35.10;63.50
41928;DHT22;27616;51.420;6.788;2023-07-09T12:36:18;35.00;64.10
41928;DHT22;27616;51.420;6.788;2023-07-09T12:38:51;35.10;62.70
41928;DHT22;27616;51.420;6.788;2023-07-09T12:41:25;35.10;62.40
41928;DHT22;27616;51.420;6.788;2023-07-09T12:43:52;35.00;62.90
41928;DHT22;27616;51.420;6.788;2023-07-09T12:46:18;34.70;63.40
41928;DHT22;27616;51.420;6.788;2023-07-09T12:48:45;34.70;64.10
41928;DHT22;27616;51.420;6.788;2023-07-09T12:51:22;34.70;65.10
41928;DHT22;27616;51.420;6.788;2023-07-09T12:56:27;34.70;64.30
41928;DHT22;27616;51.420;6.788;2023-07-09T12:58:55;34.70;64.20
41928;DHT22;27616;51.420;6.788;2023-07-09T13:01:21;34.60;65.40
41928;DHT22;27616;51.420;6.788;2023-07-09T13:03:52;34.50;64.70
41928;DHT22;27616;51.420;6.788;2023-07-09T13:06:25;34.50;65.50
41928;DHT22;27616;51.420;6.788;2023-07-09T13:08:54;34.40;66.30
41928;DHT22;27616;51.420;6.788;2023-07-09T13:11:20;34.40;65.80
41928;DHT22;27616;51.420;6.788;2023-07-09T13:13:59;34.30;66.40
41928;DHT22;27616;51.420;6.788;2023-07-09T13:16:25;34.20;66.40
41928;DHT22;27616;51.420;6.788;2023-07-09T13:18:50;34.10;64.90
41928;DHT22;27616;51.420;6.788;2023-07-09T13:21:16;34.10;65.20
41928;DHT22;27616;51.420;6.788;2023-07-09T13:23:42;34.00;65.60
41928;DHT22;27616;51.420;6.788;2023-07-09T13:26:08;33.80;67.30
41928;DHT22;27616;51.420;6.788;2023-07-09T13:28:34;33.60;68.30
41928;DHT22;27616;51.420;6.788;2023-07-09T13:31:00;33.40;69.10
41928;DHT22;27616;51.420;6.788;2023-07-09T13:33:26;33.20;69.70
41928;DHT22;27616;51.420;6.788;2023-07-09T13:35:52;33.10;70.90
41928;DHT22;27616;51.420;6.788;2023-07-09T13:38:20;32.90;71.70
41928;DHT22;27616;51.420;6.788;2023-07-09T13:40:50;32.70;77.50
41928;DHT22;27616;51.420;6.788;2023-07-09T13:43:32;32.50;74.80
41928;DHT22;27616;51.420;6.788;2023-07-09T13:45:59;32.50;75.70
41928;DHT22;27616;51.420;6.788;2023-07-09T13:48:25;32.30;77.50
41928;DHT22;27616;51.420;6.788;2023-07-09T13:50:52;32.00;77.50
41928;DHT22;27616;51.420;6.788;2023-07-09T13:53:19;31.70;79.90
41928;DHT22;27616;51.420;6.788;2023-07-09T13:55:45;31.30;83.80
41928;DHT22;27616;51.420;6.788;2023-07-09T13:58:11;30.90;83.50
41928;DHT22;27616;51.420;6.788;2023-07-09T14:00:38;30.30;85.50
41928;DHT22;27616;51.420;6.788;2023-07-09T14:03:07;29.80;90.20
41928;DHT22;27616;51.420;6.788;2023-07-09T14:05:35;29.30;91.00
41928;DHT22;27616;51.420;6.788;2023-07-09T14:08:00;28.80;91.40
41928;DHT22;27616;51.420;6.788;2023-07-09T14:10:26;28.40;92.70
41928;DHT22;27616;51.420;6.788;2023-07-09T14:12:51;28.20;93.10
41928;DHT22;27616;51.420;6.788;2023-07-09T14:15:19;28.00;93.10
41928;DHT22;27616;51.420;6.788;2023-07-09T14:17:45;27.80;93.30
41928;DHT22;27616;51.420;6.788;2023-07-09T14:20:12;27.70;93.30
41928;DHT22;27616;51.420;6.788;2023-07-09T14:22:39;27.60;93.40
41928;DHT22;27616;51.420;6.788;2023-07-09T14:25:05;27.50;94.00
41928;DHT22;27616;51.420;6.788;2023-07-09T14:27:31;27.30;94.70
41928;DHT22;27616;51.420;6.788;2023-07-09T14:29:56;27.40;94.10
41928;DHT22;27616;51.420;6.788;2023-07-09T14:32:31;27.30;94.90
41928;DHT22;27616;51.420;6.788;2023-07-09T14:34:57;27.50;93.60
41928;DHT22;27616;51.420;6.788;2023-07-09T14:37:23;27.70;93.90
41928;DHT22;27616;51.420;6.788;2023-07-09T14:39:49;27.70;93.20
41928;DHT22;27616;51.420;6.788;2023-07-09T14:42:14;27.80;92.10
41928;DHT22;27616;51.420;6.788;2023-07-09T14:44:41;27.60;94.90
41928;DHT22;27616;51.420;6.788;2023-07-09T14:47:10;27.40;96.10
41928;DHT22;27616;51.420;6.788;2023-07-09T14:49:37;27.10;98.10
41928;DHT22;27616;51.420;6.788;2023-07-09T14:52:02;26.80;97.40
41928;DHT22;27616;51.420;6.788;2023-07-09T14:54:29;26.60;99.70
41928;DHT22;27616;51.420;6.788;2023-07-09T14:56:55;26.40;99.80
41928;DHT22;27616;51.420;6.788;2023-07-09T14:59:22;26.20;99.90
41928;DHT22;27616;51.420;6.788;2023-07-09T15:01:47;26.00;99.90
41928;DHT22;27616;51.420;6.788;2023-07-09T15:06:48;25.60;99.90
41928;DHT22;27616;51.420;6.788;2023-07-09T15:09:14;25.40;99.90
41928;DHT22;27616;51.420;6.788;2023-07-09T15:11:40;25.20;99.90
41928;DHT22;27616;51.420;6.788;2023-07-09T15:14:10;25.00;99.90
41928;DHT22;27616;51.420;6.788;2023-07-09T15:16:36;24.80;99.90
41928;DHT22;27616;51.420;6.788;2023-07-09T15:19:03;24.70;99.90
41928;DHT22;27616;51.420;6.788;2023-07-09T15:21:29;24.50;99.90
41928;DHT22;27616;51.420;6.788;2023-07-09T15:23:55;24.30;99.90
41928;DHT22;27616;51.420;6.788;2023-07-09T15:26:21;24.10;99.90
41928;DHT22;27616;51.420;6.788;2023-07-09T15:28:46;23.90;99.90
41928;DHT22;27616;51.420;6.788;2023-07-09T15:31:15;23.70;99.90
41928;DHT22;27616;51.420;6.788;2023-07-09T15:33:40;23.50;99.90
41928;DHT22;27616;51.420;6.788;2023-07-09T15:36:10;23.40;99.90
41928;DHT22;27616;51.420;6.788;2023-07-09T15:38:36;23.20;99.90
41928;DHT22;27616;51.420;6.788;2023-07-09T15:41:07;23.10;99.90
41928;DHT22;27616;51.420;6.788;2023-07-09T15:43:35;23.10;99.90
41928;DHT22;27616;51.420;6.788;2023-07-09T15:46:01;23.00;99.90
41928;DHT22;27616;51.420;6.788;2023-07-09T15:48:32;23.00;99.90
41928;DHT22;27616;51.420;6.788;2023-07-09T15:50:58;23.00;99.90
41928;DHT22;27616;51.420;6.788;2023-07-09T15:53:25;22.90;99.90
41928;DHT22;27616;51.420;6.788;2023-07-09T15:55:52;22.80;99.90
41928;DHT22;27616;51.420;6.788;2023-07-09T15:58:21;22.80;99.90
41928;DHT22;27616;51.420;6.788;2023-07-09T16:00:49;22.80;99.90
41928;DHT22;27616;51.420;6.788;2023-07-09T16:03:14;22.80;99.90
41928;DHT22;27616;51.420;6.788;2023-07-09T16:05:40;22.80;99.90
41928;DHT22;27616;51.420;6.788;2023-07-09T16:08:06;22.80;99.90